Terminal Aerodrome Forecast
Issued by NWS Dallas/Fort Worth, TX

Home | Current Version | Previous Version | Text Only | Print | Product List | Glossary On
Versions: 1 2 3 4 5 6 7 8 9 10 11 12 13 14 15 16 17 18 19 20 21 22 23 24 25 26 27 28 29 30 31 32
404
FTUS44 KFWD 260259 AAA
TAFDFW
TAF AMD
KDFW 260259Z 2603/2706 17015KT P6SM BKN035
     FM260500 17012KT P6SM BKN025
     FM260800 17012KT P6SM BKN015
     FM261600 17013KT P6SM VCSH OVC035
     FM262100 18015G25KT P6SM VCTS OVC045CB
     FM270000 18015KT P6SM VCSH OVC035=

USA.gov is the U.S. government's official web portal to all federal, state and local government web resources and services.